Aviation Digital Data Service (ADDS)

Output produced by METARs form (1250 UTC 21 February 2018)
found at http://www.aviationweather.gov/adds/metars/
 
TAF DXXX 201100Z 2012/2118 VRB03KT 9999 SCT010 
     BECMG 2014/2016 20010KT 
     PROB30 
     TEMPO 2015/2020 TS BKN013 FEW020CB 
     BECMG 2022/2024 VRB03KT